createdAt,value
2018-10-21T00:02:27.566Z,97.60
2018-10-21T00:04:57.217Z,97.50
2018-10-21T00:07:26.799Z,97.50
2018-10-21T00:09:56.374Z,97.50
2018-10-21T00:12:25.951Z,97.60
2018-10-21T00:14:55.579Z,97.50
2018-10-21T00:17:25.190Z,97.50
2018-10-21T00:19:54.722Z,97.60
2018-10-21T00:22:24.289Z,97.70
2018-10-21T00:24:53.983Z,97.60
2018-10-21T00:27:23.540Z,97.50
2018-10-21T00:29:53.082Z,97.50
2018-10-21T00:32:26.731Z,97.40
2018-10-21T00:34:56.332Z,97.20
2018-10-21T00:37:25.918Z,97.10
2018-10-21T00:39:55.532Z,97.10
2018-10-21T00:42:25.153Z,97.10
2018-10-21T00:44:54.815Z,97.10
2018-10-21T00:47:24.457Z,97.10
2018-10-21T00:49:54.048Z,97.00
2018-10-21T00:52:23.695Z,97.00
2018-10-21T00:54:53.450Z,97.10
2018-10-21T00:57:23.003Z,97.20
2018-10-21T00:59:52.821Z,97.20
2018-10-21T01:02:22.426Z,97.10
2018-10-21T01:04:52.055Z,97.10
2018-10-21T01:07:21.610Z,97.10
2018-10-21T01:09:51.178Z,97.20
2018-10-21T01:12:20.681Z,97.30
2018-10-21T01:14:50.277Z,97.40
2018-10-21T01:17:19.921Z,97.40
2018-10-21T01:19:49.510Z,97.50
2018-10-21T01:22:19.141Z,97.50
2018-10-21T01:24:48.642Z,97.40
2018-10-21T01:27:18.279Z,97.50
2018-10-21T01:29:48.528Z,97.60
2018-10-21T01:32:18.725Z,97.70
2018-10-21T01:34:48.323Z,97.70
2018-10-21T01:37:17.966Z,97.70
2018-10-21T01:40:52.566Z,97.70
2018-10-21T01:43:28.333Z,97.60
2018-10-21T01:45:58.230Z,97.60
2018-10-21T01:48:29.000Z,97.70
2018-10-21T01:50:58.627Z,97.70
2018-10-21T01:53:28.249Z,97.60
2018-10-21T01:55:57.904Z,97.60
2018-10-21T01:58:27.515Z,97.70
2018-10-21T02:00:57.062Z,97.70
2018-10-21T02:03:26.604Z,97.70
2018-10-21T02:05:56.190Z,97.60
2018-10-21T02:08:25.732Z,97.90
2018-10-21T02:10:55.225Z,97.80
2018-10-21T02:13:24.775Z,97.60
2018-10-21T02:15:54.279Z,97.70
2018-10-21T02:18:23.909Z,97.60
2018-10-21T02:20:53.472Z,97.50
2018-10-21T02:23:23.002Z,97.30
2018-10-21T02:25:52.585Z,97.20
2018-10-21T02:28:22.172Z,97.30
2018-10-21T02:30:51.781Z,97.30
2018-10-21T02:33:21.480Z,97.40
2018-10-21T02:35:51.058Z,97.30
2018-10-21T02:38:20.651Z,97.20
2018-10-21T02:41:30.450Z,97.20
2018-10-21T02:44:00.135Z,97.20
2018-10-21T02:46:30.145Z,97.20
2018-10-21T02:49:00.535Z,97.10
2018-10-21T02:51:30.250Z,97.20
2018-10-21T02:53:59.864Z,97.10
2018-10-21T02:56:29.560Z,97.10
2018-10-21T02:58:59.212Z,97.30
2018-10-21T03:01:28.803Z,97.30
2018-10-21T03:03:58.403Z,97.30
2018-10-21T03:06:28.024Z,97.20
2018-10-21T03:08:57.653Z,97.30
2018-10-21T03:11:27.279Z,97.50
2018-10-21T03:13:56.831Z,97.50
2018-10-21T03:16:26.422Z,97.50
2018-10-21T03:18:56.031Z,97.40
2018-10-21T03:21:25.623Z,97.40
2018-10-21T03:23:55.217Z,97.50
2018-10-21T03:26:24.838Z,97.20
2018-10-21T03:28:54.455Z,97.40
2018-10-21T03:31:24.098Z,97.50
2018-10-21T03:33:53.697Z,97.40
2018-10-21T03:36:23.184Z,97.00
2018-10-21T03:38:52.912Z,97.20
2018-10-21T03:41:22.577Z,97.30
2018-10-21T03:43:52.172Z,97.60
2018-10-21T03:46:21.814Z,97.60
2018-10-21T03:48:51.399Z,97.40
2018-10-21T03:51:21.018Z,97.60
2018-10-21T03:53:50.528Z,97.40
2018-10-21T03:56:20.112Z,97.50
2018-10-21T03:58:49.654Z,97.50
2018-10-21T04:01:19.237Z,97.60
2018-10-21T04:03:48.776Z,97.60
2018-10-21T04:06:18.299Z,97.50
2018-10-21T04:08:47.873Z,97.40
2018-10-21T04:11:17.350Z,97.40
2018-10-21T04:13:46.925Z,97.40
2018-10-21T04:16:16.548Z,97.40
2018-10-21T04:18:46.193Z,97.30
2018-10-21T04:21:15.777Z,97.20
2018-10-21T04:23:45.426Z,97.30
2018-10-21T04:26:15.089Z,97.30
2018-10-21T04:28:44.713Z,97.40
2018-10-21T04:31:14.363Z,97.40
2018-10-21T04:33:45.021Z,97.40
2018-10-21T04:36:16.405Z,97.40
2018-10-21T04:40:00.119Z,97.40
2018-10-21T04:42:29.925Z,97.30
2018-10-21T04:44:59.688Z,97.10
2018-10-21T04:47:29.738Z,97.10
2018-10-21T04:49:59.704Z,97.20
2018-10-21T04:52:30.633Z,97.10
2018-10-21T04:55:08.631Z,97.10
2018-10-21T04:57:39.790Z,96.90
2018-10-21T05:00:13.710Z,96.90
2018-10-21T05:02:43.907Z,96.80
2018-10-21T05:05:14.631Z,96.70
2018-10-21T05:07:44.437Z,96.80
2018-10-21T05:10:21.721Z,96.70
2018-10-21T05:12:51.354Z,96.70
2018-10-21T05:15:21.499Z,96.80
2018-10-21T05:17:51.238Z,96.70
2018-10-21T05:20:20.846Z,96.70
2018-10-21T05:22:50.496Z,96.80
2018-10-21T05:25:20.269Z,96.70
2018-10-21T05:27:49.836Z,96.60
2018-10-21T05:30:19.490Z,96.70
2018-10-21T05:32:49.213Z,96.60
2018-10-21T05:35:19.487Z,96.80
2018-10-21T05:37:49.225Z,96.70
2018-10-21T05:40:22.344Z,96.60
2018-10-21T05:42:52.260Z,96.80
2018-10-21T05:45:21.876Z,96.90
2018-10-21T05:47:51.558Z,96.80
2018-10-21T05:50:21.153Z,96.80
2018-10-21T05:52:50.737Z,96.70
2018-10-21T05:55:20.985Z,96.80
2018-10-21T05:57:50.705Z,96.80
2018-10-21T06:00:21.438Z,96.90
2018-10-21T06:02:51.594Z,96.90
2018-10-21T06:05:50.313Z,96.80
2018-10-21T06:08:20.030Z,96.70
2018-10-21T06:10:49.658Z,96.80
2018-10-21T06:13:19.249Z,96.80
2018-10-21T06:15:48.892Z,96.60
2018-10-21T06:18:26.242Z,96.70
2018-10-21T06:20:58.674Z,96.60
2018-10-21T06:23:28.328Z,96.60
2018-10-21T06:25:57.899Z,96.60
2018-10-21T06:28:27.523Z,96.60
2018-10-21T06:30:57.203Z,96.60
2018-10-21T06:33:26.772Z,96.70
2018-10-21T06:35:56.371Z,96.90
2018-10-21T06:38:25.961Z,96.90
2018-10-21T06:40:55.543Z,96.50
2018-10-21T06:43:25.106Z,96.60
2018-10-21T06:45:54.718Z,96.80
2018-10-21T06:48:24.246Z,96.80
2018-10-21T06:50:53.918Z,96.50
2018-10-21T06:53:23.498Z,96.50
2018-10-21T06:55:53.151Z,96.60
2018-10-21T06:58:22.704Z,96.60
2018-10-21T07:00:52.290Z,96.60
2018-10-21T07:03:21.863Z,96.60
2018-10-21T07:06:24.261Z,96.50
2018-10-21T07:08:55.117Z,96.40
2018-10-21T07:11:24.714Z,96.30
2018-10-21T07:13:54.289Z,96.60
2018-10-21T07:16:23.921Z,96.50
2018-10-21T07:18:53.763Z,96.40
2018-10-21T07:21:23.410Z,96.30
2018-10-21T07:23:53.035Z,96.40
2018-10-21T07:26:22.959Z,96.50
2018-10-21T07:28:52.555Z,96.40
2018-10-21T07:31:22.175Z,96.50
2018-10-21T07:33:51.772Z,96.50
2018-10-21T07:36:21.354Z,96.40
2018-10-21T07:38:50.947Z,96.60
2018-10-21T07:41:20.520Z,96.40
2018-10-21T07:43:50.114Z,96.30
2018-10-21T07:46:19.666Z,96.00
2018-10-21T07:48:49.231Z,96.00
2018-10-21T07:51:18.907Z,95.80
2018-10-21T07:53:48.502Z,95.80
2018-10-21T07:56:18.176Z,95.60
2018-10-21T07:58:47.784Z,95.50
2018-10-21T08:01:17.704Z,95.80
2018-10-21T08:03:47.319Z,95.60
2018-10-21T08:06:42.148Z,95.40
2018-10-21T08:09:12.496Z,95.60
2018-10-21T08:11:42.015Z,95.30
2018-10-21T08:14:11.574Z,95.20
2018-10-21T08:16:41.179Z,95.20
2018-10-21T08:19:10.822Z,95.20
2018-10-21T08:21:40.395Z,95.30
2018-10-21T08:24:10.079Z,95.20
2018-10-21T08:26:39.854Z,95.00
2018-10-21T08:29:09.457Z,95.00
2018-10-21T08:31:39.067Z,95.00
2018-10-21T08:34:08.694Z,94.70
2018-10-21T08:36:38.476Z,94.70
2018-10-21T08:39:08.746Z,94.90
2018-10-21T08:41:38.322Z,94.90
2018-10-21T08:44:07.855Z,94.80
2018-10-21T08:46:37.531Z,94.90
2018-10-21T08:49:07.094Z,94.60
2018-10-21T08:51:36.652Z,94.60
2018-10-21T08:54:06.236Z,95.10
2018-10-21T08:56:35.849Z,94.70
2018-10-21T08:59:05.551Z,94.80
2018-10-21T09:01:35.144Z,94.60
2018-10-21T09:04:05.066Z,94.40
2018-10-21T09:06:34.790Z,94.70
2018-10-21T09:09:05.410Z,94.30
2018-10-21T09:11:34.956Z,94.20
2018-10-21T09:14:05.371Z,94.10
2018-10-21T09:16:35.842Z,93.70
2018-10-21T09:19:05.831Z,93.10
2018-10-21T09:21:35.405Z,93.40
2018-10-21T09:24:05.183Z,93.40
2018-10-21T09:26:34.781Z,93.30
2018-10-21T09:29:04.375Z,93.40
2018-10-21T09:31:33.995Z,93.20
2018-10-21T09:34:03.610Z,93.50
2018-10-21T09:36:33.185Z,93.00
2018-10-21T09:39:03.027Z,93.10
2018-10-21T09:41:32.569Z,92.80
2018-10-21T09:44:02.225Z,93.20
2018-10-21T09:46:31.978Z,93.40
2018-10-21T09:49:01.604Z,93.10
2018-10-21T09:51:31.196Z,93.40
2018-10-21T09:54:00.758Z,93.20
2018-10-21T09:56:30.393Z,93.20
2018-10-21T09:58:59.991Z,93.10
2018-10-21T10:01:34.706Z,92.80
2018-10-21T10:04:04.426Z,92.70
2018-10-21T10:06:34.081Z,92.70
2018-10-21T10:09:03.893Z,93.10
2018-10-21T10:11:33.497Z,93.00
2018-10-21T10:14:03.066Z,93.00
2018-10-21T10:16:32.663Z,92.80
2018-10-21T10:19:02.289Z,92.70
2018-10-21T10:21:31.927Z,92.90
2018-10-21T10:24:01.573Z,92.60
2018-10-21T10:26:31.163Z,92.80
2018-10-21T10:29:00.755Z,93.00
2018-10-21T10:31:30.315Z,93.10
2018-10-21T10:33:59.898Z,93.10
2018-10-21T10:36:29.495Z,93.30
2018-10-21T10:38:59.083Z,93.50
2018-10-21T10:41:28.635Z,93.70
2018-10-21T10:43:58.186Z,93.20
2018-10-21T10:46:27.792Z,93.20
2018-10-21T10:48:57.360Z,93.20
2018-10-21T10:51:26.998Z,93.30
2018-10-21T10:53:56.645Z,93.50
2018-10-21T10:56:26.232Z,93.90
2018-10-21T10:58:55.783Z,93.70
2018-10-21T11:01:25.379Z,93.20
2018-10-21T11:03:56.263Z,93.30
2018-10-21T11:06:25.923Z,92.50
2018-10-21T11:08:55.732Z,91.80
2018-10-21T11:11:25.402Z,91.90
2018-10-21T11:13:54.958Z,92.10
2018-10-21T11:16:24.598Z,91.80
2018-10-21T11:18:54.350Z,91.80
2018-10-21T11:21:23.888Z,91.80
2018-10-21T11:23:53.578Z,92.20
2018-10-21T11:26:24.088Z,91.90
2018-10-21T11:28:53.645Z,91.60
2018-10-21T11:31:23.211Z,91.30
2018-10-21T11:33:53.404Z,91.40
2018-10-21T11:36:23.208Z,91.50
2018-10-21T11:38:52.795Z,91.60
2018-10-21T11:41:22.414Z,91.50
2018-10-21T11:43:51.971Z,91.50
2018-10-21T11:46:21.598Z,91.40
2018-10-21T11:48:51.222Z,91.40
2018-10-21T11:51:20.740Z,91.20
2018-10-21T11:53:50.379Z,91.00
2018-10-21T11:56:20.020Z,90.70
2018-10-21T11:58:49.611Z,90.30
2018-10-21T12:01:19.341Z,90.20
2018-10-21T12:03:49.061Z,89.90
2018-10-21T12:06:18.641Z,90.00
2018-10-21T12:08:48.426Z,90.40
2018-10-21T12:11:18.131Z,90.30
2018-10-21T12:13:47.742Z,90.70
2018-10-21T12:16:17.429Z,91.40
2018-10-21T12:18:46.947Z,91.60
2018-10-21T12:21:16.571Z,91.60
2018-10-21T12:23:46.191Z,91.70
2018-10-21T12:26:16.417Z,92.00
2018-10-21T12:28:46.992Z,92.10
2018-10-21T12:31:17.169Z,92.30
2018-10-21T12:33:46.894Z,92.40
2018-10-21T12:36:16.843Z,92.50
2018-10-21T12:38:46.432Z,92.60
2018-10-21T12:41:15.946Z,92.80
2018-10-21T12:43:57.379Z,92.70
2018-10-21T12:46:30.057Z,93.00
2018-10-21T12:49:01.975Z,93.20
2018-10-21T12:51:37.028Z,92.80
2018-10-21T12:54:11.236Z,92.50
2018-10-21T12:56:42.085Z,92.40
2018-10-21T12:59:13.684Z,92.50
2018-10-21T13:01:44.566Z,92.10
2018-10-21T13:04:14.288Z,92.00
2018-10-21T13:06:43.910Z,92.20
2018-10-21T13:09:13.502Z,93.00
2018-10-21T13:11:43.128Z,93.40
2018-10-21T13:14:13.336Z,93.20
2018-10-21T13:16:43.348Z,93.30
2018-10-21T13:19:14.035Z,92.80
2018-10-21T13:21:44.125Z,92.60
2018-10-21T13:24:13.897Z,92.30
2018-10-21T13:26:45.467Z,92.20
2018-10-21T13:29:16.226Z,91.80
2018-10-21T13:31:45.804Z,91.50
2018-10-21T13:34:16.147Z,91.40
2018-10-21T13:36:45.806Z,91.50
2018-10-21T13:39:16.327Z,91.40
2018-10-21T13:41:49.224Z,91.40
2018-10-21T13:44:19.223Z,91.30
2018-10-21T13:46:49.272Z,91.60
2018-10-21T13:49:19.259Z,91.40
2018-10-21T13:51:49.451Z,91.60
2018-10-21T13:54:19.242Z,91.20
2018-10-21T13:56:49.246Z,91.50
2018-10-21T13:59:19.272Z,91.50
2018-10-21T14:01:49.203Z,91.60
2018-10-21T14:04:19.282Z,91.70
2018-10-21T14:06:49.825Z,91.90
2018-10-21T14:09:19.676Z,92.00
2018-10-21T14:11:49.579Z,92.10
2018-10-21T14:14:19.489Z,92.20
2018-10-21T14:16:49.487Z,92.50
2018-10-21T14:19:19.362Z,92.40
2018-10-21T14:21:49.429Z,92.50
2018-10-21T14:24:19.491Z,92.60
2018-10-21T14:26:49.528Z,92.80
2018-10-21T14:29:19.351Z,92.90
2018-10-21T14:31:49.398Z,93.00
2018-10-21T14:34:19.293Z,93.10
2018-10-21T14:36:49.191Z,93.20
2018-10-21T14:39:19.312Z,93.10
2018-10-21T14:41:52.160Z,93.10
2018-10-21T14:44:21.724Z,93.10
2018-10-21T14:46:51.268Z,93.20
2018-10-21T14:49:20.950Z,93.10
2018-10-21T14:51:50.593Z,93.40
2018-10-21T14:54:20.350Z,93.40
2018-10-21T14:56:50.048Z,93.40
2018-10-21T14:59:19.692Z,93.70
2018-10-21T15:01:49.390Z,93.90
2018-10-21T15:04:19.016Z,93.80
2018-10-21T15:06:49.246Z,94.00
2018-10-21T15:09:18.982Z,94.00
2018-10-21T15:11:48.663Z,94.00
2018-10-21T15:14:18.380Z,94.10
2018-10-21T15:16:47.964Z,94.10
2018-10-21T15:19:17.660Z,94.10
2018-10-21T15:21:47.380Z,94.10
2018-10-21T15:24:17.046Z,94.20
2018-10-21T15:26:46.804Z,94.40
2018-10-21T15:29:16.503Z,94.20
2018-10-21T15:31:46.089Z,94.30
2018-10-21T15:34:16.435Z,94.20
2018-10-21T15:36:46.210Z,94.40
2018-10-21T15:39:15.892Z,94.30
2018-10-21T15:41:45.559Z,94.40
2018-10-21T15:44:15.298Z,94.30
2018-10-21T15:46:47.263Z,94.50
2018-10-21T15:49:16.862Z,94.40
2018-10-21T15:51:46.642Z,94.10
2018-10-21T15:54:16.284Z,94.60
2018-10-21T15:56:46.426Z,94.40
2018-10-21T15:59:16.459Z,94.30
2018-10-21T16:01:49.671Z,94.50
2018-10-21T16:04:21.266Z,94.40
2018-10-21T16:06:50.914Z,94.30
2018-10-21T16:09:20.491Z,94.50
2018-10-21T16:11:50.199Z,94.40
2018-10-21T16:14:19.884Z,94.00
2018-10-21T16:16:49.492Z,94.40
2018-10-21T16:19:19.857Z,94.10
2018-10-21T16:24:42.913Z,93.80
2018-10-21T16:27:12.906Z,94.10
2018-10-21T16:29:42.643Z,93.90
2018-10-21T16:32:12.251Z,93.70
2018-10-21T16:34:52.843Z,93.60
2018-10-21T16:37:22.463Z,93.50
2018-10-21T16:39:52.498Z,93.60
2018-10-21T16:42:22.042Z,93.90
2018-10-21T16:44:51.760Z,93.90
2018-10-21T16:47:21.442Z,94.20
2018-10-21T16:49:51.213Z,93.50
2018-10-21T16:52:21.879Z,93.70
2018-10-21T16:54:51.434Z,93.80
2018-10-21T16:57:21.110Z,93.30
2018-10-21T16:59:50.745Z,93.60
2018-10-21T17:02:20.898Z,93.30
2018-10-21T17:04:52.031Z,93.50
2018-10-21T17:07:22.027Z,93.40
2018-10-21T17:09:52.259Z,93.50
2018-10-21T17:12:22.416Z,93.70
2018-10-21T17:14:52.459Z,93.80
2018-10-21T17:17:22.622Z,93.90
2018-10-21T17:19:52.799Z,94.10
2018-10-21T17:22:22.812Z,93.80
2018-10-21T17:24:53.144Z,93.90
2018-10-21T17:27:23.306Z,93.80
2018-10-21T17:29:53.522Z,93.90
2018-10-21T17:32:23.657Z,94.00
2018-10-21T17:34:55.338Z,94.30
2018-10-21T17:37:26.136Z,94.40
2018-10-21T17:39:56.489Z,94.10
2018-10-21T17:42:26.167Z,94.20
2018-10-21T17:44:58.126Z,94.30
2018-10-21T17:47:27.999Z,94.50
2018-10-21T17:49:57.855Z,94.50
2018-10-21T17:52:27.609Z,94.50
2018-10-21T17:54:57.228Z,94.40
2018-10-21T17:57:26.810Z,94.40
2018-10-21T17:59:56.426Z,94.40
2018-10-21T18:02:26.049Z,94.40
2018-10-21T18:04:55.590Z,94.30
2018-10-21T18:07:25.241Z,94.40
2018-10-21T18:09:57.553Z,94.30
2018-10-21T18:12:27.269Z,94.20
2018-10-21T18:14:57.444Z,94.20
2018-10-21T18:17:28.527Z,94.10
2018-10-21T18:19:58.318Z,94.20
2018-10-21T18:22:27.941Z,94.20
2018-10-21T18:24:57.596Z,94.00
2018-10-21T18:27:27.302Z,93.90
2018-10-21T18:29:59.170Z,94.00
2018-10-21T18:32:29.201Z,94.00
2018-10-21T18:34:59.638Z,93.90
2018-10-21T18:37:32.473Z,93.80
2018-10-21T18:40:03.598Z,93.80
2018-10-21T18:42:33.571Z,93.80
2018-10-21T18:45:03.634Z,93.90
2018-10-21T18:47:33.643Z,93.70
2018-10-21T18:50:03.744Z,94.10
2018-10-21T18:52:34.025Z,93.90
2018-10-21T18:55:04.982Z,93.90
2018-10-21T18:57:36.492Z,93.90
2018-10-21T19:00:11.372Z,94.00
2018-10-21T19:02:41.587Z,94.00
2018-10-21T19:05:12.608Z,93.90
2018-10-21T19:10:17.222Z,94.00
2018-10-21T19:12:59.571Z,94.00
2018-10-21T19:20:27.136Z,94.00
2018-10-21T19:22:57.125Z,94.10
2018-10-21T19:25:26.823Z,93.70
2018-10-21T19:27:56.575Z,93.90
2018-10-21T19:30:26.280Z,94.00
2018-10-21T19:32:55.965Z,94.10
2018-10-21T19:35:26.277Z,94.00
2018-10-21T19:37:56.694Z,93.90
2018-10-21T19:40:27.007Z,93.60
2018-10-21T19:42:57.372Z,93.90
2018-10-21T19:45:27.704Z,94.00
2018-10-21T19:50:27.552Z,94.00
2018-10-21T19:52:58.176Z,94.00
2018-10-21T19:55:28.667Z,94.00
2018-10-21T19:57:59.022Z,94.10
2018-10-21T20:00:29.323Z,94.10
2018-10-21T20:02:59.653Z,94.20
2018-10-21T20:05:30.025Z,94.00
2018-10-21T20:08:00.310Z,94.00
2018-10-21T20:10:30.549Z,94.10
2018-10-21T20:13:00.704Z,94.60
2018-10-21T20:15:30.970Z,94.10
2018-10-21T20:18:01.190Z,94.10
2018-10-21T20:20:31.353Z,94.20
2018-10-21T20:23:01.272Z,94.40
2018-10-21T20:25:30.993Z,94.30
2018-10-21T20:28:00.750Z,94.30
2018-10-21T20:30:30.445Z,94.30
2018-10-21T20:33:00.025Z,94.30
2018-10-21T20:35:29.666Z,94.30
2018-10-21T20:37:59.240Z,94.30
2018-10-21T20:40:28.822Z,94.30
2018-10-21T20:42:58.463Z,94.50
2018-10-21T20:45:28.097Z,94.30
2018-10-21T20:47:57.687Z,94.30
2018-10-21T20:50:27.300Z,94.30
2018-10-21T20:52:56.859Z,94.30
2018-10-21T20:55:26.454Z,94.30
2018-10-21T20:57:56.143Z,94.20
2018-10-21T21:00:25.739Z,94.40
2018-10-21T21:02:55.253Z,94.50
2018-10-21T21:05:24.978Z,94.50
2018-10-21T21:07:54.531Z,94.60
2018-10-21T21:10:24.119Z,94.60
2018-10-21T21:12:53.828Z,94.60
2018-10-21T21:15:23.388Z,94.80
2018-10-21T21:17:52.993Z,95.20
2018-10-21T21:20:22.511Z,95.20
2018-10-21T21:22:52.064Z,95.00
2018-10-21T21:25:21.674Z,95.00
2018-10-21T21:27:51.193Z,94.80
2018-10-21T21:30:20.918Z,95.00
2018-10-21T21:32:50.473Z,95.00
2018-10-21T21:35:20.032Z,95.00
2018-10-21T21:37:49.714Z,95.10
2018-10-21T21:40:19.338Z,95.00
2018-10-21T21:42:48.923Z,95.20
2018-10-21T21:45:18.498Z,95.40
2018-10-21T21:47:48.118Z,95.50
2018-10-21T21:50:17.687Z,95.20
2018-10-21T21:52:47.200Z,95.00
2018-10-21T21:55:16.735Z,95.00
2018-10-21T21:57:46.260Z,95.30
2018-10-21T22:00:15.982Z,95.40
2018-10-21T22:02:45.610Z,95.70
2018-10-21T22:05:15.142Z,95.60
2018-10-21T22:07:44.669Z,96.00
2018-10-21T22:10:14.767Z,95.70
2018-10-21T22:12:44.984Z,95.80
2018-10-21T22:15:14.621Z,95.70
2018-10-21T22:17:44.195Z,95.80
2018-10-21T22:20:14.346Z,95.80
2018-10-21T22:22:44.206Z,95.60
2018-10-21T22:25:13.890Z,95.60
2018-10-21T22:27:43.435Z,95.60
2018-10-21T22:30:13.178Z,95.40
2018-10-21T22:35:11.765Z,95.50
2018-10-21T22:37:41.270Z,95.60
2018-10-21T22:40:11.039Z,95.70
2018-10-21T22:42:40.653Z,95.60
2018-10-21T22:45:10.891Z,95.50
2018-10-21T22:47:40.464Z,95.60
2018-10-21T22:50:11.873Z,95.60
2018-10-21T22:52:42.120Z,95.60
2018-10-21T22:55:11.676Z,95.70
2018-10-21T22:57:41.201Z,96.00
2018-10-21T23:00:11.261Z,95.60
2018-10-21T23:02:40.740Z,95.70
2018-10-21T23:05:10.430Z,95.80
2018-10-21T23:07:40.190Z,95.60
2018-10-21T23:10:09.791Z,95.40
2018-10-21T23:12:39.451Z,95.50
2018-10-21T23:15:09.087Z,95.80
2018-10-21T23:17:39.420Z,96.00
2018-10-21T23:20:09.534Z,96.00
2018-10-21T23:22:39.026Z,96.00
2018-10-21T23:25:08.607Z,96.40
2018-10-21T23:27:38.197Z,96.30
2018-10-21T23:30:08.561Z,96.20
2018-10-21T23:35:07.584Z,96.00
2018-10-21T23:37:37.132Z,96.10
2018-10-21T23:40:07.794Z,96.10
2018-10-21T23:42:37.446Z,96.10
2018-10-21T23:45:07.200Z,96.20
2018-10-21T23:47:36.813Z,96.00
2018-10-21T23:50:07.019Z,95.80
2018-10-21T23:55:05.630Z,96.10
2018-10-21T23:57:35.197Z,96.00
